Time;durP1;ratioP1;P1;durP2;ratioP2;P2;SDS_P1;SDS_P2;PMS_P1;PMS_P2;Temp;Humidity;BMP_temperature;BMP_pressure;BME280_temperature;BME280_humidity;BME280_pressure;Samples;Min_cycle;Max_cycle;Signal;HPM_P1;HPM_P2
2022/12/06 00:00:30;;;;;;;0.00;0.00;;;;;;;16.24;56.37;102266.97;2059170;28;20050;-66
2022/12/06 00:01:35;;;;;;;0.00;0.00;;;;;;;16.25;56.57;102279.44;2056143;28;20104;-66
2022/12/06 00:02:37;;;;;;;0.00;0.00;;;;;;;16.23;56.50;102265.41;2061953;28;20089;-66
2022/12/06 00:03:44;;;;;;;0.00;0.00;;;;;;;16.25;56.35;102267.78;2055901;28;20547;-67
2022/12/06 00:04:46;;;;;;;0.00;0.00;;;;;;;16.23;56.48;102268.13;2060133;28;20426;-67
2022/12/06 00:05:49;;;;;;;0.00;0.00;;;;;;;16.23;56.39;102270.84;2061641;28;20045;-66
2022/12/06 00:06:53;;;;;;;0.00;0.00;;;;;;;16.23;56.40;102257.22;2055926;28;20415;-66
2022/12/06 00:07:55;;;;;;;0.00;0.00;;;;;;;16.22;56.24;102257.56;2057114;28;20054;-67
2022/12/06 00:08:59;;;;;;;0.00;0.00;;;;;;;16.24;56.42;102266.16;2059742;28;20484;-67
2022/12/06 00:10:01;;;;;;;0.00;0.00;;;;;;;16.22;56.60;102263.78;2056923;28;20406;-67
2022/12/06 00:11:07;;;;;;;0.00;0.00;;;;;;;16.23;56.51;102265.41;2058327;28;20117;-66
2022/12/06 00:12:09;;;;;;;0.00;0.00;;;;;;;16.23;56.44;102261.88;2058258;28;20105;-66
2022/12/06 00:13:12;;;;;;;0.00;0.00;;;;;;;16.22;56.47;102263.00;2055985;28;20050;-66
2022/12/06 00:14:15;;;;;;;0.00;0.00;;;;;;;16.22;56.48;102263.78;2058602;28;20867;-67
2022/12/06 00:15:18;;;;;;;0.00;0.00;;;;;;;16.21;56.39;102262.22;2060732;28;20117;-67
2022/12/06 00:16:20;;;;;;;0.00;0.00;;;;;;;16.22;56.65;102268.47;2058670;28;20093;-68
2022/12/06 00:17:24;;;;;;;0.00;0.00;;;;;;;16.22;56.58;102263.78;2061929;28;20536;-66
2022/12/06 00:18:29;;;;;;;0.00;0.00;;;;;;;16.22;56.20;102263.78;2058809;28;20070;-67
2022/12/06 00:19:33;;;;;;;0.00;0.00;;;;;;;16.21;56.52;102264.94;2058816;28;20050;-67
2022/12/06 00:20:36;;;;;;;0.00;0.00;;;;;;;16.21;56.49;102262.22;2058203;28;20178;-67
2022/12/06 00:21:39;;;;;;;0.00;0.00;;;;;;;16.21;56.47;102272.31;2057820;28;20054;-66
2022/12/06 00:22:43;;;;;;;0.00;0.00;;;;;;;16.22;56.40;102268.47;2059432;28;20539;-67
2022/12/06 00:23:48;;;;;;;0.00;0.00;;;;;;;16.21;56.43;102272.31;2057276;28;20090;-67
2022/12/06 00:24:50;;;;;;;0.00;0.00;;;;;;;16.19;56.52;102272.66;2060261;28;20046;-66
2022/12/06 00:25:53;;;;;;;0.00;0.00;;;;;;;16.20;56.61;102282.44;2061653;28;20414;-66
2022/12/06 00:26:57;;;;;;;0.00;0.00;;;;;;;16.20;56.52;102276.97;2062580;28;20054;-67
2022/12/06 00:27:59;;;;;;;0.00;0.00;;;;;;;16.20;56.44;102274.25;2057968;28;20679;-65
2022/12/06 00:29:02;;;;;;;0.00;0.00;;;;;;;16.19;56.55;102272.66;2057185;28;20414;-67
2022/12/06 00:30:05;;;;;;;0.00;0.00;;;;;;;16.20;56.52;102276.97;2061629;28;20054;-67
2022/12/06 00:31:10;;;;;;;0.00;0.00;;;;;;;16.20;56.54;102266.09;2056133;28;20054;-66
2022/12/06 00:32:13;;;;;;;0.00;0.00;;;;;;;16.18;56.55;102271.06;2057191;28;20149;-66
2022/12/06 00:33:21;;;;;;;0.00;0.00;;;;;;;16.19;56.79;102272.66;2059008;28;20054;-66
2022/12/06 00:34:24;;;;;;;0.00;0.00;;;;;;;16.19;56.56;102269.13;2063780;28;20129;-68
2022/12/06 00:35:28;;;;;;;0.00;0.00;;;;;;;16.19;56.43;102272.66;2056595;28;20605;-67
2022/12/06 00:36:33;;;;;;;0.00;0.00;;;;;;;16.19;56.43;102272.66;2056625;28;20053;-66
2022/12/06 00:37:36;;;;;;;0.00;0.00;;;;;;;16.18;56.59;102259.38;2058114;28;20152;-67
2022/12/06 00:38:39;;;;;;;0.00;0.00;;;;;;;16.18;56.45;102262.09;2059823;28;20059;-67
2022/12/06 00:39:43;;;;;;;0.00;0.00;;;;;;;16.18;56.29;102257.44;2061115;28;20060;-67
2022/12/06 00:40:45;;;;;;;0.00;0.00;;;;;;;16.18;56.43;102257.44;2055728;28;20058;-67
2022/12/06 00:41:48;;;;;;;0.00;0.00;;;;;;;16.17;56.61;102255.84;2060173;28;20059;-67
2022/12/06 00:42:51;;;;;;;0.00;0.00;;;;;;;16.18;56.61;102257.44;2052205;28;20343;-67
2022/12/06 00:43:54;;;;;;;0.00;0.00;;;;;;;16.18;56.45;102251.19;2049752;28;20546;-66
2022/12/06 00:44:56;;;;;;;0.00;0.00;;;;;;;16.17;56.45;102255.84;2058962;28;20466;-67
2022/12/06 00:46:00;;;;;;;0.00;0.00;;;;;;;16.18;56.40;102268.34;2058179;28;20463;-67
2022/12/06 00:47:03;;;;;;;0.00;0.00;;;;;;;16.18;56.64;102248.47;2057870;28;20051;-66
2022/12/06 00:48:05;;;;;;;0.00;0.00;;;;;;;16.17;56.50;102255.84;2055981;28;20085;-66
2022/12/06 00:49:09;;;;;;;0.00;0.00;;;;;;;16.16;56.42;102257.00;2058267;28;20517;-67
2022/12/06 00:50:11;;;;;;;0.00;0.00;;;;;;;16.16;56.41;102265.16;2056293;28;20459;-66
2022/12/06 00:51:17;;;;;;;0.00;0.00;;;;;;;16.18;56.53;102262.09;2062176;28;20062;-66
2022/12/06 00:52:21;;;;;;;0.00;0.00;;;;;;;16.15;56.46;102258.13;2057535;28;20603;-67
2022/12/06 00:53:23;;;;;;;0.00;0.00;;;;;;;16.16;56.47;102253.47;2060040;28;20483;-67
2022/12/06 00:54:26;;;;;;;0.00;0.00;;;;;;;16.16;56.40;102248.00;2059078;28;20458;-67
2022/12/06 00:55:28;;;;;;;0.00;0.00;;;;;;;16.15;56.47;102255.41;2058517;28;20061;-68
2022/12/06 00:56:32;;;;;;;0.00;0.00;;;;;;;16.16;56.95;102250.75;2056026;28;20118;-66
2022/12/06 00:57:34;;;;;;;0.00;0.00;;;;;;;16.16;56.40;102246.09;2062361;28;20050;-67
2022/12/06 00:58:37;;;;;;;0.00;0.00;;;;;;;16.17;56.46;102252.34;2059058;28;20054;-67
2022/12/06 00:59:40;;;;;;;0.00;0.00;;;;;;;16.16;56.48;102253.47;2061646;28;20090;-65
2022/12/06 01:00:43;;;;;;;0.00;0.00;;;;;;;16.15;56.48;102247.25;2064878;28;20464;-67
2022/12/06 01:01:46;;;;;;;0.00;0.00;;;;;;;16.15;56.40;102252.69;2057390;28;20553;-67
2022/12/06 01:02:48;;;;;;;0.00;0.00;;;;;;;16.15;56.40;102247.25;2061998;28;20090;-66
2022/12/06 01:03:54;;;;;;;0.00;0.00;;;;;;;16.16;56.43;102243.38;2059518;28;20062;-66
2022/12/06 01:04:56;;;;;;;0.00;0.00;;;;;;;16.14;56.52;102251.09;2058399;28;20581;-67
2022/12/06 01:06:03;;;;;;;0.00;0.00;;;;;;;16.13;56.43;102243.25;2061505;28;20057;-66
2022/12/06 01:07:07;;;;;;;0.00;0.00;;;;;;;16.13;56.33;102243.25;2058762;28;20414;-66
2022/12/06 01:08:11;;;;;;;0.00;0.00;;;;;;;16.12;56.51;102245.19;2057615;28;20059;-66
2022/12/06 01:09:13;;;;;;;0.00;0.00;;;;;;;16.14;56.53;102245.63;2061691;28;20572;-65
2022/12/06 01:10:16;;;;;;;0.00;0.00;;;;;;;16.14;56.38;102255.75;2061606;28;20463;-67
2022/12/06 01:11:18;;;;;;;0.00;0.00;;;;;;;16.13;56.52;102248.69;2057574;28;20058;-67
2022/12/06 01:12:22;;;;;;;0.00;0.00;;;;;;;16.12;56.43;102258.03;2061018;28;20057;-66
2022/12/06 01:13:24;;;;;;;0.00;0.00;;;;;;;16.14;56.41;102250.31;2060898;28;20050;-66
2022/12/06 01:14:27;;;;;;;0.00;0.00;;;;;;;16.08;56.48;102244.28;2060149;28;20575;-65
2022/12/06 01:15:29;;;;;;;0.00;0.00;;;;;;;16.13;56.51;102262.31;2060917;28;20054;-66
2022/12/06 01:16:32;;;;;;;0.00;0.00;;;;;;;16.13;56.48;102252.22;2057852;28;20537;-67
2022/12/06 01:17:34;;;;;;;0.00;0.00;;;;;;;16.13;56.39;102260.41;2056810;28;20416;-66
2022/12/06 01:18:38;;;;;;;0.00;0.00;;;;;;;16.14;56.47;102253.81;2064653;28;20057;-67
2022/12/06 01:19:41;;;;;;;0.00;0.00;;;;;;;16.14;56.63;102253.03;2058888;28;20050;-67
2022/12/06 01:20:43;;;;;;;0.00;0.00;;;;;;;16.13;56.42;102262.31;2061034;28;20120;-66
2022/12/06 01:21:45;;;;;;;0.00;0.00;;;;;;;16.12;56.52;102252.56;2053330;28;20148;-65
2022/12/06 01:22:49;;;;;;;0.00;0.00;;;;;;;16.12;56.49;102258.84;2049410;28;20638;-66
2022/12/06 01:23:53;;;;;;;0.00;0.00;;;;;;;16.13;56.13;102265.84;2061573;28;20437;-65
2022/12/06 01:24:55;;;;;;;0.00;0.00;;;;;;;16.12;56.61;102252.56;2064191;28;20105;-66
2022/12/06 01:25:58;;;;;;;0.00;0.00;;;;;;;16.12;56.64;102261.56;2061879;28;20046;-66
2022/12/06 01:27:01;;;;;;;0.00;0.00;;;;;;;16.12;56.56;102258.84;2063633;28;20096;-67
2022/12/06 01:28:03;;;;;;;0.00;0.00;;;;;;;16.13;56.54;102265.84;2060657;28;20109;-67
2022/12/06 01:29:06;;;;;;;0.00;0.00;;;;;;;16.11;56.53;102251.78;2064005;28;20077;-68
2022/12/06 01:30:08;;;;;;;0.00;0.00;;;;;;;16.12;56.50;102253.38;2054361;28;20055;-65
2022/12/06 01:31:11;;;;;;;0.00;0.00;;;;;;;16.13;56.51;102254.16;2054166;28;20058;-66
2022/12/06 01:32:14;;;;;;;0.00;0.00;;;;;;;16.11;56.46;102249.03;2056956;28;20434;-67
2022/12/06 01:33:16;;;;;;;0.00;0.00;;;;;;;16.13;56.55;102254.16;2055323;28;20542;-66
2022/12/06 01:34:18;;;;;;;0.00;0.00;;;;;;;16.11;56.51;102251.78;2055213;28;20086;-66
2022/12/06 01:35:21;;;;;;;0.00;0.00;;;;;;;16.12;56.40;102252.56;2062182;28;20151;-66
2022/12/06 01:36:25;;;;;;;0.00;0.00;;;;;;;16.12;56.48;102252.56;2060929;28;20113;-67
2022/12/06 01:37:28;;;;;;;0.00;0.00;;;;;;;16.11;56.53;102251.78;2058616;28;20054;-67
2022/12/06 01:38:31;;;;;;;0.00;0.00;;;;;;;16.12;56.44;102258.03;2051017;28;20573;-67
2022/12/06 01:39:34;;;;;;;0.00;0.00;;;;;;;16.11;56.54;102251.00;2057278;28;20058;-67
2022/12/06 01:40:38;;;;;;;0.00;0.00;;;;;;;16.10;56.47;102250.19;2060406;28;20417;-67
2022/12/06 01:41:41;;;;;;;0.00;0.00;;;;;;;16.10;56.28;102250.19;2058204;28;20047;-67
2022/12/06 01:42:43;;;;;;;0.00;0.00;;;;;;;16.09;56.46;102254.03;2060726;28;20480;-67
2022/12/06 01:43:47;;;;;;;0.00;0.00;;;;;;;16.11;56.41;102251.78;2060490;28;20073;-67
2022/12/06 01:44:51;;;;;;;0.00;0.00;;;;;;;16.10;56.31;102255.66;2059814;28;20058;-67
2022/12/06 01:45:54;;;;;;;0.00;0.00;;;;;;;16.09;56.46;102248.59;2058154;28;20081;-67
2022/12/06 01:46:56;;;;;;;0.00;0.00;;;;;;;16.08;56.39;102252.47;2062938;28;20640;-67
2022/12/06 01:47:59;;;;;;;0.00;0.00;;;;;;;16.10;56.58;102250.19;2063164;28;20111;-67
2022/12/06 01:49:13;;;;;;;0.00;0.00;;;;;;;16.08;56.51;102247.00;2059990;28;20112;-67
2022/12/06 01:50:20;;;;;;;0.00;0.00;;;;;;;16.08;56.51;102241.56;2057355;28;20046;-67
2022/12/06 01:51:23;;;;;;;0.00;0.00;;;;;;;16.07;56.42;102242.72;2063430;28;20061;-67
2022/12/06 01:52:30;;;;;;;0.00;0.00;;;;;;;16.08;56.52;102244.28;2062500;28;20097;-67
2022/12/06 01:53:35;;;;;;;0.00;0.00;;;;;;;16.08;56.56;102241.56;2059146;28;20410;-67
2022/12/06 01:54:39;;;;;;;0.00;0.00;;;;;;;16.07;56.39;102239.19;2058620;28;20415;-67
2022/12/06 01:55:42;;;;;;;0.00;0.00;;;;;;;16.07;56.55;102234.53;2060588;28;20165;-67
2022/12/06 01:56:45;;;;;;;0.00;0.00;;;;;;;16.07;56.47;102240.00;2057811;28;20532;-67
2022/12/06 01:57:51;;;;;;;0.00;0.00;;;;;;;16.07;56.63;102237.25;2061552;28;20054;-67
2022/12/06 01:58:55;;;;;;;0.00;0.00;;;;;;;16.06;56.60;102229.44;2058222;28;20138;-67
2022/12/06 01:59:58;;;;;;;0.00;0.00;;;;;;;16.07;56.48;102233.72;2057551;28;20462;-66
2022/12/06 02:01:01;;;;;;;0.00;0.00;;;;;;;16.07;56.58;102231.81;2059721;28;20137;-67
2022/12/06 02:02:04;;;;;;;0.00;0.00;;;;;;;16.07;56.42;102234.53;2058178;28;20491;-67
2022/12/06 02:03:11;;;;;;;0.00;0.00;;;;;;;16.07;56.30;102229.09;2059499;28;20746;-66
2022/12/06 02:04:16;;;;;;;0.00;0.00;;;;;;;16.07;56.50;102229.09;2057372;28;20062;-67
2022/12/06 02:05:19;;;;;;;0.00;0.00;;;;;;;16.06;56.57;102226.72;2058526;28;20167;-67
2022/12/06 02:06:22;;;;;;;0.00;0.00;;;;;;;16.05;56.51;102227.81;2060878;28;20058;-66
2022/12/06 02:07:26;;;;;;;0.00;0.00;;;;;;;16.06;56.58;102226.72;2056695;28;20050;-67
2022/12/06 02:08:29;;;;;;;0.00;0.00;;;;;;;16.05;56.59;102220.47;2057851;28;20064;-67
2022/12/06 02:09:34;;;;;;;0.00;0.00;;;;;;;16.05;56.57;102223.19;2057434;28;20067;-65
2022/12/06 02:10:37;;;;;;;0.00;0.00;;;;;;;16.04;56.57;102218.88;2062460;28;20062;-67
2022/12/06 02:11:42;;;;;;;0.00;0.00;;;;;;;16.05;56.38;102220.47;2061551;28;20058;-67
2022/12/06 02:12:46;;;;;;;0.00;0.00;;;;;;;16.05;56.53;102219.66;2056974;28;20062;-67
2022/12/06 02:13:49;;;;;;;0.00;0.00;;;;;;;16.04;56.54;102218.88;2060317;28;20063;-67
2022/12/06 02:14:53;;;;;;;0.00;0.00;;;;;;;16.06;56.61;102221.25;2059263;28;20063;-67
2022/12/06 02:16:11;;;;;;;0.00;0.00;;;;;;;16.04;56.35;102223.53;2059186;28;20062;-64
2022/12/06 02:17:27;;;;;;;0.00;0.00;;;;;;;15.99;56.60;102221.84;2060441;28;20065;-67
2022/12/06 02:18:38;;;;;;;0.00;0.00;;;;;;;16.01;56.48;102219.56;2060444;28;20085;-67
2022/12/06 02:19:59;;;;;;;0.00;0.00;;;;;;;15.95;56.53;102215.47;2062778;28;20050;-67
2022/12/06 02:21:13;;;;;;;0.00;0.00;;;;;;;15.99;56.78;102219.13;2063533;28;20125;-67
2022/12/06 02:22:22;;;;;;;0.00;0.00;;;;;;;16.00;56.55;102220.69;2056769;28;20419;-66
2022/12/06 02:24:11;;;;;;;0.00;0.00;;;;;;;15.88;56.64;102226.16;2062445;28;20046;-67
2022/12/06 02:25:34;;;;;;;0.00;0.00;;;;;;;15.91;56.73;102217.31;2037412;29;20065;-67
2022/12/06 02:26:44;;;;;;;0.00;0.00;;;;;;;15.94;56.66;102208.44;2033859;29;20732;-66
2022/12/06 02:28:06;;;;;;;0.00;0.00;;;;;;;15.93;56.73;102212.31;2038205;29;20064;-66
2022/12/06 02:29:37;;;;;;;0.00;0.00;;;;;;;15.89;56.61;102221.50;2036340;29;20059;-64
2022/12/06 02:30:46;;;;;;;0.00;0.00;;;;;;;15.91;56.76;102214.59;2041458;28;20066;-68
2022/12/06 02:31:56;;;;;;;0.00;0.00;;;;;;;15.95;56.58;102214.69;2063319;28;20709;-67
2022/12/06 02:33:04;;;;;;;0.00;0.00;;;;;;;15.95;56.76;102207.28;2059801;28;20054;-67
2022/12/06 02:34:13;;;;;;;0.00;0.00;;;;;;;15.93;56.58;102209.59;2059087;28;20062;-67
2022/12/06 02:35:25;;;;;;;0.00;0.00;;;;;;;15.94;56.78;102213.91;2061292;28;20054;-67
2022/12/06 02:36:31;;;;;;;0.00;0.00;;;;;;;15.94;56.82;102213.91;2059968;28;20078;-67
2022/12/06 02:37:38;;;;;;;0.00;0.00;;;;;;;15.96;56.75;102213.53;2063088;28;20054;-66
2022/12/06 02:38:46;;;;;;;0.00;0.00;;;;;;;15.96;56.61;102211.63;2058923;28;20050;-68
2022/12/06 02:39:56;;;;;;;0.00;0.00;;;;;;;15.96;56.85;102210.81;2060553;28;20355;-64
2022/12/06 02:41:01;;;;;;;0.00;0.00;;;;;;;15.94;56.79;102205.72;2057104;28;20161;-67
2022/12/06 02:42:06;;;;;;;0.00;0.00;;;;;;;15.96;56.73;102205.38;2061055;28;20086;-66
2022/12/06 02:43:14;;;;;;;0.00;0.00;;;;;;;15.96;56.61;102211.63;2058422;28;20058;-66
2022/12/06 02:44:24;;;;;;;0.00;0.00;;;;;;;15.95;56.71;102204.56;2062434;28;20128;-67
2022/12/06 02:45:31;;;;;;;0.00;0.00;;;;;;;15.94;56.83;102202.19;2058197;28;20059;-68
2022/12/06 02:46:37;;;;;;;0.00;0.00;;;;;;;15.94;56.76;102197.56;2057782;28;20050;-65
2022/12/06 02:47:42;;;;;;;0.00;0.00;;;;;;;15.95;56.78;102210.03;2057133;28;20050;-68
2022/12/06 02:48:46;;;;;;;0.00;0.00;;;;;;;15.96;56.69;102197.19;2061639;28;20050;-67
2022/12/06 02:49:53;;;;;;;0.00;0.00;;;;;;;15.95;56.77;102199.13;2058646;28;20103;-67
2022/12/06 02:51:00;;;;;;;0.00;0.00;;;;;;;15.95;56.75;102204.56;2057209;28;20050;-67
2022/12/06 02:52:04;;;;;;;0.00;0.00;;;;;;;15.95;56.81;102199.13;2061133;28;20066;-68
2022/12/06 02:53:11;;;;;;;0.00;0.00;;;;;;;15.96;56.67;102194.47;2062428;28;20069;-67
2022/12/06 02:54:14;;;;;;;0.00;0.00;;;;;;;15.96;56.82;102199.94;2057260;28;20058;-68
2022/12/06 02:55:18;;;;;;;0.00;0.00;;;;;;;15.97;56.58;102196.06;2059526;28;20549;-68
2022/12/06 02:56:21;;;;;;;0.00;0.00;;;;;;;15.96;56.61;102198.00;2059709;28;20120;-68
2022/12/06 02:57:33;;;;;;;0.00;0.00;;;;;;;15.96;56.66;102198.00;2057513;28;20198;-68
2022/12/06 02:58:37;;;;;;;0.00;0.00;;;;;;;15.93;56.59;102195.16;2058093;28;20111;-68
2022/12/06 02:59:49;;;;;;;0.00;0.00;;;;;;;15.92;56.59;102193.59;2053796;28;20109;-68
2022/12/06 03:00:55;;;;;;;0.00;0.00;;;;;;;15.94;56.68;102197.56;2046407;28;20134;-67
2022/12/06 03:02:01;;;;;;;0.00;0.00;;;;;;;15.95;56.68;102195.63;2050544;28;20062;-67
2022/12/06 03:03:32;;;;;;;0.00;0.00;;;;;;;15.90;56.61;102195.84;2059945;28;20062;-66
2022/12/06 03:04:46;;;;;;;0.00;0.00;;;;;;;15.90;56.74;102193.13;2060205;28;20057;-68
2022/12/06 03:06:08;;;;;;;0.00;0.00;;;;;;;15.88;56.80;102201.66;2060720;28;20089;-67
2022/12/06 03:07:24;;;;;;;0.00;0.00;;;;;;;15.88;56.60;102196.22;2057348;28;20116;-68
2022/12/06 03:08:36;;;;;;;0.00;0.00;;;;;;;15.88;56.90;102188.03;2060144;28;20116;-67
2022/12/06 03:09:56;;;;;;;0.00;0.00;;;;;;;15.87;56.62;102191.88;2063748;28;20108;-65
2022/12/06 03:11:02;;;;;;;0.00;0.00;;;;;;;15.89;56.90;102195.06;2059310;28;20062;-66
2022/12/06 03:12:10;;;;;;;0.00;0.00;;;;;;;15.91;56.77;102192.00;2057113;28;20047;-66
2022/12/06 03:13:18;;;;;;;0.00;0.00;;;;;;;15.91;56.66;102200.16;2061993;28;20051;-67
2022/12/06 03:14:23;;;;;;;0.00;0.00;;;;;;;15.91;56.73;102200.16;2063173;28;20120;-66
2022/12/06 03:15:37;;;;;;;0.00;0.00;;;;;;;15.92;56.79;102197.09;2047898;28;20110;-65
2022/12/06 03:16:46;;;;;;;0.00;0.00;;;;;;;15.90;56.79;102204.03;2049880;28;20082;-66
2022/12/06 03:17:57;;;;;;;0.00;0.00;;;;;;;15.89;56.68;102197.78;2063156;28;20058;-59
2022/12/06 03:19:04;;;;;;;;;;;;;;;15.70;57.14;102196.78;2060353;28;20050;-60
2022/12/06 03:20:13;;;;;;;0.00;0.00;;;;;;;15.81;56.88;102201.41;2057890;28;20397;-59
2022/12/06 03:21:23;;;;;;;0.00;0.00;;;;;;;15.84;56.89;102200.72;2059453;28;20446;-59
2022/12/06 03:22:31;;;;;;;0.00;0.00;;;;;;;15.85;56.89;102199.63;2059929;28;20057;-60
2022/12/06 03:23:46;;;;;;;0.00;0.00;;;;;;;15.86;56.79;102203.91;2060640;28;20089;-59
2022/12/06 03:24:50;;;;;;;0.00;0.00;;;;;;;15.87;56.68;102202.78;2059511;28;20058;-59
2022/12/06 03:25:57;;;;;;;0.00;0.00;;;;;;;15.87;56.53;102208.22;2059359;28;20067;-59
2022/12/06 03:27:03;;;;;;;0.00;0.00;;;;;;;15.88;56.90;102203.56;2061813;28;20061;-59
2022/12/06 03:28:08;;;;;;;0.00;0.00;;;;;;;15.89;56.91;102207.88;2061345;28;20042;-59
2022/12/06 03:29:13;;;;;;;0.00;0.00;;;;;;;15.90;56.80;102201.31;2059258;28;20054;-59
2022/12/06 03:30:16;;;;;;;0.00;0.00;;;;;;;15.88;56.93;102204.38;2058420;28;20398;-58
2022/12/06 03:31:21;;;;;;;0.00;0.00;;;;;;;15.90;56.82;102201.31;2062865;28;20054;-59
2022/12/06 03:32:29;;;;;;;0.00;0.00;;;;;;;15.90;56.99;102202.06;2061001;28;20055;-59
2022/12/06 03:33:33;;;;;;;0.00;0.00;;;;;;;15.89;56.90;102203.22;2058627;28;20077;-59
2022/12/06 03:34:38;;;;;;;0.00;0.00;;;;;;;15.90;56.64;102199.34;2059231;28;20050;-60
2022/12/06 03:35:44;;;;;;;0.00;0.00;;;;;;;15.90;56.72;102196.63;2059539;28;20062;-59
2022/12/06 03:36:49;;;;;;;0.00;0.00;;;;;;;15.90;56.80;102196.63;2060292;28;20127;-60
2022/12/06 03:37:57;;;;;;;0.00;0.00;;;;;;;15.90;56.72;102201.31;2063214;28;20078;-60
2022/12/06 03:39:03;;;;;;;0.00;0.00;;;;;;;15.90;56.68;102202.06;2061593;28;20058;-60
2022/12/06 03:40:10;;;;;;;0.00;0.00;;;;;;;15.90;56.81;102202.06;2058391;28;20050;-60
2022/12/06 03:41:16;;;;;;;0.00;0.00;;;;;;;15.90;56.80;102199.34;2058982;28;20117;-60
2022/12/06 03:42:18;;;;;;;0.00;0.00;;;;;;;15.89;56.77;102197.78;2058003;28;20050;-59
2022/12/06 03:43:22;;;;;;;0.00;0.00;;;;;;;15.89;56.74;102192.34;2056773;28;20047;-59
2022/12/06 03:44:24;;;;;;;0.00;0.00;;;;;;;15.91;56.70;102192.00;2054931;28;20063;-59
2022/12/06 03:45:38;;;;;;;0.00;0.00;;;;;;;15.91;57.34;102198.25;2048854;28;20054;-60
2022/12/06 03:46:46;;;;;;;0.00;0.00;;;;;;;15.90;56.82;102191.19;2059430;28;20049;-60
2022/12/06 03:47:55;;;;;;;0.00;0.00;;;;;;;15.89;56.77;102194.25;2056917;28;20146;-61
2022/12/06 03:49:02;;;;;;;0.00;0.00;;;;;;;15.89;56.82;102188.81;2060964;28;20446;-60
2022/12/06 03:50:10;;;;;;;0.00;0.00;;;;;;;15.89;56.66;102186.88;2059505;28;20116;-60
2022/12/06 03:51:17;;;;;;;0.00;0.00;;;;;;;15.90;56.60;102187.69;2062444;28;20061;-67
2022/12/06 03:52:21;;;;;;;0.00;0.00;;;;;;;15.88;56.83;102182.59;2058220;28;20058;-65
2022/12/06 03:53:24;;;;;;;0.00;0.00;;;;;;;15.89;56.75;102184.16;2063740;28;20050;-66
2022/12/06 03:54:26;;;;;;;0.00;0.00;;;;;;;15.90;56.68;102185.75;2058663;28;20410;-68
2022/12/06 03:55:29;;;;;;;0.00;0.00;;;;;;;15.90;56.46;102180.28;2061554;28;20061;-67
2022/12/06 03:56:35;;;;;;;0.00;0.00;;;;;;;15.90;56.58;102184.97;2060703;28;20050;-67
2022/12/06 03:57:37;;;;;;;0.00;0.00;;;;;;;15.90;56.88;102190.41;2059037;28;20133;-66
2022/12/06 03:58:40;;;;;;;0.00;0.00;;;;;;;15.90;56.73;102185.75;2059410;28;20059;-66
2022/12/06 03:59:42;;;;;;;0.00;0.00;;;;;;;15.90;56.67;102185.75;2058995;28;20151;-65
2022/12/06 04:00:45;;;;;;;0.00;0.00;;;;;;;15.91;56.80;102187.34;2059181;28;20054;-66
2022/12/06 04:01:47;;;;;;;0.00;0.00;;;;;;;15.90;56.78;102185.75;2057920;28;20108;-66
2022/12/06 04:02:49;;;;;;;0.00;0.00;;;;;;;15.92;56.71;102182.69;2059471;28;20058;-66
2022/12/06 04:03:51;;;;;;;0.00;0.00;;;;;;;15.91;56.80;102181.91;2057239;28;20062;-66
2022/12/06 04:04:56;;;;;;;0.00;0.00;;;;;;;15.92;56.50;102180.75;2055602;28;20197;-66
2022/12/06 04:06:00;;;;;;;0.00;0.00;;;;;;;15.92;56.61;102174.53;2060455;28;20065;-66
2022/12/06 04:07:03;;;;;;;0.00;0.00;;;;;;;15.92;56.66;102182.69;2056035;28;20082;-66
2022/12/06 04:08:05;;;;;;;0.00;0.00;;;;;;;15.91;56.67;102181.91;2062399;28;20509;-67
2022/12/06 04:10:28;;;;;;;0.00;0.00;;;;;;;15.87;56.81;102178.25;2057586;28;20058;-68
2022/12/06 04:11:29;;;;;;;0.00;0.00;;;;;;;15.89;56.70;102180.63;2059101;28;20112;-66
2022/12/06 04:13:54;;;;;;;0.00;0.00;;;;;;;15.86;56.77;102179.41;2056177;28;20081;-66
2022/12/06 04:14:56;;;;;;;0.00;0.00;;;;;;;15.87;56.66;102183.69;2062736;28;20100;-65
2022/12/06 04:16:00;;;;;;;0.00;0.00;;;;;;;15.90;56.68;102180.28;2057881;28;20082;-66
2022/12/06 04:18:23;;;;;;;;;;;;;;;15.67;57.11;102181.13;2060678;28;20054;-67
2022/12/06 04:19:25;;;;;;;0.00;0.00;;;;;;;15.78;56.96;102177.59;2059736;28;19930;-66
2022/12/06 04:23:02;;;;;;;0.00;0.00;;;;;;;15.84;56.90;102181.66;2057896;28;20073;-66
2022/12/06 04:23:13;;;;;;;0.00;0.00;;;;;;;15.79;56.69;102179.19;2060380;28;20050;-66
2022/12/06 04:24:15;;;;;;;0.00;0.00;;;;;;;15.83;56.77;102173.84;2058733;28;20062;-65
2022/12/06 04:25:18;;;;;;;0.00;0.00;;;;;;;15.85;56.86;102172.38;2064014;28;20074;-66
2022/12/06 04:26:22;;;;;;;0.00;0.00;;;;;;;15.85;56.62;102175.09;2058575;28;20054;-67
2022/12/06 04:39:35;;;;;;;0.00;0.00;;;;;;;15.75;56.80;102156.50;2062323;28;20058;-67
2022/12/06 04:40:37;;;;;;;0.00;0.00;;;;;;;15.78;56.72;102158.53;2059429;28;20051;-67
2022/12/06 04:44:21;;;;;;;0.00;0.00;;;;;;;15.67;57.12;102151.97;2058738;28;19925;-67
2022/12/06 04:45:22;;;;;;;0.00;0.00;;;;;;;15.73;56.91;102150.59;2060347;28;20061;-67
2022/12/06 04:46:25;;;;;;;0.00;0.00;;;;;;;15.75;56.87;102145.59;2062170;28;20096;-66
2022/12/06 04:47:28;;;;;;;0.00;0.00;;;;;;;15.76;56.88;102151.84;2061936;28;20055;-67
2022/12/06 04:48:30;;;;;;;0.00;0.00;;;;;;;15.77;56.84;102151.50;2060831;28;20062;-68
2022/12/06 04:49:33;;;;;;;0.00;0.00;;;;;;;15.78;56.95;102144.91;2050899;28;20058;-67
2022/12/06 04:50:37;;;;;;;0.00;0.00;;;;;;;15.79;56.83;102146.50;2051832;28;20086;-62
2022/12/06 04:51:39;;;;;;;0.00;0.00;;;;;;;15.80;56.83;102150.03;2063331;28;20084;-66
2022/12/06 04:52:41;;;;;;;0.00;0.00;;;;;;;15.78;56.97;102144.13;2060749;28;20059;-64
2022/12/06 04:53:45;;;;;;;0.00;0.00;;;;;;;15.81;56.77;102144.22;2058589;28;20093;-66
2022/12/06 04:54:47;;;;;;;0.00;0.00;;;;;;;15.82;56.78;102150.47;2060641;28;20069;-67
2022/12/06 04:55:50;;;;;;;0.00;0.00;;;;;;;15.82;56.97;102150.47;2061865;28;20065;-66
2022/12/06 04:56:53;;;;;;;0.00;0.00;;;;;;;15.82;56.90;102151.28;2065942;28;20062;-66
2022/12/06 04:57:55;;;;;;;0.00;0.00;;;;;;;15.81;56.51;102146.94;2065357;28;20088;-67
2022/12/06 04:58:58;;;;;;;0.00;0.00;;;;;;;15.83;56.66;102152.06;2058707;28;20058;-67
2022/12/06 05:00:00;;;;;;;0.00;0.00;;;;;;;15.82;56.73;102156.72;2062305;28;20054;-67
2022/12/06 05:01:03;;;;;;;0.00;0.00;;;;;;;15.83;56.76;102146.59;2061970;28;20046;-67
2022/12/06 05:02:06;;;;;;;0.00;0.00;;;;;;;15.83;56.76;102155.59;2058113;28;20054;-66
2022/12/06 05:03:09;;;;;;;0.00;0.00;;;;;;;15.84;56.95;102161.84;2059352;28;20100;-66
2022/12/06 05:04:11;;;;;;;0.00;0.00;;;;;;;15.83;56.71;102155.59;2061566;28;20059;-66
2022/12/06 05:05:13;;;;;;;0.00;0.00;;;;;;;15.83;56.80;102152.84;2065110;28;20054;-67
2022/12/06 05:06:18;;;;;;;0.00;0.00;;;;;;;15.84;56.83;102154.44;2064960;28;20050;-67
2022/12/06 05:07:20;;;;;;;0.00;0.00;;;;;;;15.84;56.78;102146.25;2062035;28;20050;-66
2022/12/06 05:08:24;;;;;;;0.00;0.00;;;;;;;15.84;56.71;102151.72;2059902;28;20505;-66
2022/12/06 05:09:25;;;;;;;0.00;0.00;;;;;;;15.84;56.83;102145.50;2062853;28;20058;-67
2022/12/06 05:10:28;;;;;;;0.00;0.00;;;;;;;15.85;56.66;102150.59;2064002;28;20053;-66
2022/12/06 05:11:30;;;;;;;0.00;0.00;;;;;;;15.84;56.65;102143.53;2058005;28;20051;-66
2022/12/06 05:12:33;;;;;;;0.00;0.00;;;;;;;15.85;56.65;102139.69;2063940;28;20054;-66
2022/12/06 05:13:35;;;;;;;0.00;0.00;;;;;;;15.84;56.84;102142.78;2062332;28;20055;-66
2022/12/06 05:14:38;;;;;;;0.00;0.00;;;;;;;15.85;56.67;102141.63;2061747;28;20054;-66
2022/12/06 05:15:48;;;;;;;0.00;0.00;;;;;;;15.82;56.62;102143.13;2059769;28;20055;-66
2022/12/06 05:16:51;;;;;;;0.00;0.00;;;;;;;15.80;56.84;102137.22;2059035;28;20133;-66
2022/12/06 05:17:53;;;;;;;0.00;0.00;;;;;;;15.84;56.64;102140.03;2065514;28;20046;-66
2022/12/06 05:18:56;;;;;;;0.00;0.00;;;;;;;15.83;56.75;102135.72;2062650;28;20065;-65
2022/12/06 05:19:58;;;;;;;0.00;0.00;;;;;;;15.84;56.78;102135.38;2058939;28;20054;-66
2022/12/06 05:21:03;;;;;;;0.00;0.00;;;;;;;15.85;56.68;102139.69;2062549;28;20054;-66
2022/12/06 05:22:07;;;;;;;0.00;0.00;;;;;;;15.83;56.48;102135.72;2059243;28;20055;-65
2022/12/06 05:23:08;;;;;;;0.00;0.00;;;;;;;15.85;56.70;102141.63;2059340;28;20054;-66
2022/12/06 05:24:13;;;;;;;0.00;0.00;;;;;;;15.81;56.62;102132.56;2063660;28;20058;-65